Have a Safe July 4th! 

Flight Track Log - Related Links

Times and Time Zones

All times are in EDT time to prevent confusion due to time zone crossing. See the GJS3710 flight status page for this flight to view local times or setup timezone preferences in your user account.

Time Position Orientation Groundspeed Altitude Reporting Facility
EDT Latitude Longitude Course Direction KTS MPH feet Rate Location/Type
Thu 10:31:21 PM 42.0000 -87.9500 20° North 156 180 1,800  Level Chicago TRACON
Thu 10:32:27 PM 42.0500 -87.9333 14° North 183 211 4,300 1,222 Climbing Chicago TRACON
Thu 10:34:03 PM 42.1356 -87.8994 16° North 224 258 5,100 1,299 Climbing Chicago Center
Thu 10:35:04 PM 42.1997 -87.8714 18° North 241 277 7,700 2,878 Climbing Chicago Center
Thu 10:36:00 PM 42.6598 -87.6785 20° North  Level FlightAware Approximate
Thu 10:36:06 PM 42.2772 -87.8353 19° North 248 285 11,000  Level Chicago Center
Thu 10:37:08 PM 42.3506 -87.8375 359° North 256 295 13,500 1,610 Climbing Chicago Center
Thu 10:38:09 PM 42.4278 -87.8114 14° North 294 338 14,300 780 Climbing Chicago Center
Thu 10:39:11 PM 42.5192 -87.7700 18° North 343 395 15,100 1,016 Climbing Chicago Center
Thu 10:40:13 PM 42.6172 -87.7275 18° North 364 419 16,400 1,317 Climbing Chicago Center
Thu 10:41:14 PM 42.7175 -87.6819 18° North 376 433 17,800 1,317 Climbing Chicago Center
Thu 10:42:16 PM 42.8111 -87.6203 26° Northeast 381 438 19,100 1,220 Climbing Chicago Center
Thu 10:43:17 PM 42.8483 -87.4406 74° East 425 489 20,300 1,122 Climbing Chicago Center
Thu 10:44:19 PM 42.8642 -87.2789 82° East 438 504 21,400 968 Climbing Chicago Center
Thu 10:45:21 PM 42.8825 -87.1131 81° East 442 509 22,300 878 Climbing Chicago Center
Thu 10:46:22 PM 42.9000 -86.9428 82° East 452 520 23,200 836 Climbing Chicago Center
Thu 10:47:23 PM 42.9183 -86.7706 82° East 460 529 24,000 683 Climbing Chicago Center
Thu 10:48:25 PM 42.9358 -86.5978 82° East 462 532 24,600 537 Climbing Chicago Center
Thu 10:49:26 PM 42.9533 -86.4194 82° East 474 545 25,100 537 Climbing Chicago Center
Thu 10:50:28 PM 42.9747 -86.2033 82° East 480 552 25,700 683 Climbing Chicago Center
Thu 10:51:29 PM 42.9914 -86.0192 83° East 486 559 26,500 780 Climbing Chicago Center
Thu 10:52:31 PM 43.0083 -85.8528 82° East 483 556 27,300 732 Climbing Chicago Center
Thu 10:53:32 PM 43.0247 -85.6714 83° East 485 558 28,000 780 Climbing Chicago Center
Thu 10:54:34 PM 43.0417 -85.4889 83° East 486 559 28,900 878 Climbing Chicago Center
Thu 10:55:35 PM 43.0614 -85.2733 83° East 479 551 29,800 683 Climbing Chicago Center
Thu 10:56:37 PM 43.0772 -85.0911 83° East 482 555 30,300 488 Climbing Chicago Center
Thu 10:57:38 PM 43.0928 -84.9056 83° East 491 565 30,800 488 Climbing Chicago Center
Thu 10:58:40 PM 43.0958 -84.7172 89° East 496 571 31,300 488 Climbing Chicago Center
Thu 10:59:41 PM 43.1003 -84.5278 88° East 497 572 31,800 492 Climbing Chicago Center
Thu 11:00:42 PM 43.1025 -84.3369 89° East 502 578 32,300 488 Climbing Chicago Center
Thu 11:01:44 PM 43.1044 -84.1464 89° East 502 578 32,800 545 Climbing Chicago Center
Thu 11:01:59 PM 43.1036 -84.0725 91° East 496 571 33,000 560 Climbing Cleveland Center
Thu 11:02:59 PM 43.1050 -83.8792 89° East 496 571 33,500 500 Climbing Cleveland Center
Thu 11:03:59 PM 43.1061 -83.6914 89° East 491 565 34,000 500 Climbing Cleveland Center
Thu 11:04:59 PM 43.1069 -83.5008 90° East 496 571 34,500 500 Climbing Cleveland Center
Thu 11:05:59 PM 43.1094 -83.3133 89° East 496 571 35,000 250 Climbing Cleveland Center
Thu 11:06:59 PM 43.1075 -83.1283 91° East 491 565 35,000  Level Cleveland Center
Thu 11:07:59 PM 43.1094 -82.9350 89° East 497 572 35,000  Level Cleveland Center
Thu 11:08:59 PM 43.1089 -82.7417 90° East 497 572 35,000  Level Cleveland Center
Thu 11:09:59 PM 43.1083 -82.5511 90° East 497 572 35,000  Level Cleveland Center
Thu 11:11:03 PM 43.1000 -82.3500 93° East 500 575 35,000  Level Toronto Center
Thu 11:12:03 PM 43.1000 -82.1500 90° East 500 575 35,000  Level Toronto Center
Thu 11:13:03 PM 43.0833 -81.9667 97° East 500 575 35,000  Level Toronto Center
Thu 11:14:03 PM 43.1000 -81.7500 84° East 500 575 35,000  Level Toronto Center
Thu 11:15:03 PM 43.1000 -81.5667 90° East 500 575 35,000  Level Toronto Center
Thu 11:16:03 PM 43.0833 -81.3667 96° East 510 587 35,000  Level Toronto Center
Thu 11:17:03 PM 43.0833 -81.1833 90° East 510 587 35,000  Level Toronto Center
Thu 11:18:03 PM 43.0833 -81.0000 90° East 510 587 35,000  Level Toronto Center
Thu 11:19:03 PM 43.0833 -80.8000 90° East 510 587 35,000  Level Toronto Center
Thu 11:20:03 PM 43.0833 -80.6167 90° East 510 587 35,000  Level Toronto Center
Thu 11:21:03 PM 43.0833 -80.4167 90° East 500 575 35,000  Level Toronto Center
Thu 11:22:03 PM 43.0667 -80.2333 97° East 500 575 35,000  Level Toronto Center
Thu 11:23:03 PM 43.0667 -80.0500 90° East 510 587 35,000  Level Toronto Center
Thu 11:24:03 PM 43.0667 -79.8333 90° East 510 587 35,000  Level Toronto Center
Thu 11:25:03 PM 43.0500 -79.6500 97° East 510 587 35,000  Level Toronto Center
Thu 11:26:03 PM 43.0500 -79.4500 90° East 510 587 35,000  Level Toronto Center
Thu 11:27:47 PM 43.0539 -79.1597 89° East 500 575 35,000  Level Cleveland Center
Thu 11:28:03 PM 43.0333 -79.0667 107° East 500 575 35,000  Level Toronto Center
Thu 11:29:03 PM 43.0333 -78.8833 90° East 500 575 35,000  Level Toronto Center
Thu 11:30:03 PM 43.0333 -78.6833 90° East 500 575 35,000  Level Toronto Center
Thu 11:30:47 PM 43.0308 -78.5894 92° East 495 570 35,000  Level Cleveland Center
Thu 11:31:47 PM 43.0231 -78.3967 93° East 495 570 35,000  Level Cleveland Center
Thu 11:32:47 PM 43.0153 -78.2067 93° East 495 570 35,000 -300 Level Cleveland Center
Thu 11:33:47 PM 43.0067 -77.9997 93° East 495 570 34,400 -850 Descending Cleveland Center
Thu 11:34:47 PM 42.9981 -77.8069 93° East 495 570 33,300 -1,012 Descending Cleveland Center
Thu 11:36:39 PM 42.9811 -77.4731 94° East 491 565 31,500 -1,015 Descending Boston Center
Thu 11:37:03 PM 42.9500 -77.3333 107° East 510 587 31,000 -1,071 Descending Toronto Center
Thu 11:38:03 PM 42.9500 -77.1500 90° East 500 575 30,000 -1,000 Descending Toronto Center
Thu 11:39:03 PM 42.9500 -76.9667 90° East 490 564 29,000 -500 Descending Toronto Center
Thu 11:40:03 PM 42.9500 -76.7833 90° East 490 564 29,000  Level Toronto Center
Thu 11:40:39 PM 42.9444 -76.7436 101° East 492 566 29,000  Level Boston Center
Thu 11:41:39 PM 42.9339 -76.5214 94° East 492 566 29,000  Level Boston Center
Thu 11:42:39 PM 42.9250 -76.3536 94° East 492 566 29,000  Level Boston Center
Thu 11:43:39 PM 42.9122 -76.1769 96° East 481 554 29,000  Level Boston Center
Thu 11:44:39 PM 42.9033 -76.0006 94° East 476 548 29,000 -500 Level Boston Center
Thu 11:45:39 PM 42.8919 -75.8242 95° East 471 542 28,000 -1,750 Descending Boston Center
Thu 11:46:39 PM 42.8806 -75.6450 95° East 466 536 25,500 -2,500 Descending Boston Center
Thu 11:47:39 PM 42.8708 -75.4686 94° East 466 536 23,000 -2,500 Descending Boston Center
Thu 11:48:39 PM 42.8583 -75.3011 96° East 461 531 20,500 -2,600 Descending Boston Center
Thu 11:49:39 PM 42.8458 -75.1333 96° East 455 524 17,800 -2,600 Descending Boston Center
Thu 11:50:39 PM 42.8350 -74.9658 95° East 445 512 15,300 -2,547 Descending Boston Center
Thu 11:51:25 PM 42.8256 -74.8294 95° East 432 497 13,300 -2,434 Descending Boston Center
Thu 11:52:25 PM 42.8122 -74.6619 96° East 414 476 11,000 -1,140 Descending Boston Center
Thu 11:53:26 PM 42.8047 -74.5089 94° East 402 463 11,000 -149 Level Boston Center
Thu 11:54:26 PM 42.8156 -74.3678 84° East 367 422 10,700 -1,190 Descending Boston Center
Thu 11:55:27 PM 42.8383 -74.2494 75° East 307 353 8,600 -2,066 Descending Boston Center
Thu 11:55:27 PM 42.8383 -74.2494 75° East 307 353 8,600 -2,164 Level Boston Center
Thu 11:56:28 PM 42.8608 -74.1425 74° East 299 344 6,400 -2,164 Descending Boston Center
Thu 11:56:28 PM 42.8608 -74.1425 74° East 299 344 6,400 -2,200 Level Boston Center
Thu 11:57:28 PM 42.8831 -74.0353 74° East 280 322 4,200 -2,200 Descending Boston Center
Thu 11:57:28 PM 42.8831 -74.0353 74° East 280 322 4,200 -984 Level Boston Center
Thu 11:58:29 PM 42.9033 -73.9339 75° East 274 315 3,200 -984 Descending Boston Center
Thu 11:58:29 PM 42.9033 -73.9339 75° East 274 315 3,200 -700 Level Boston Center
Thu 11:59:29 PM 42.9064 -73.8433 87° East 247 284 2,500 -595 Descending Boston Center
Fri 12:00:30 AM 42.8528 -73.8108 156° South 200 230 2,000 -492 Descending Boston Center

Login

Don't have an account? Register now (free) for customized features, flight alerts, and more!